Time;durP1;ratioP1;P1;durP2;ratioP2;P2;SDS_P1;SDS_P2;PMS_P1;PMS_P2;Temp;Humidity;BMP_temperature;BMP_pressure;BME280_temperature;BME280_humidity;BME280_pressure;Samples;Min_cycle;Max_cycle;Signal;HPM_P1;HPM_P2
2022/08/21 00:01:49;;;;;;;5.80;1.00;;;;;;;13.37;100.00;100164.44;5051093;28;20060;-89
2022/08/21 00:04:16;;;;;;;4.22;0.90;;;;;;;13.33;100.00;100164.69;5051958;28;20063;-89
2022/08/21 00:06:49;;;;;;;3.55;0.90;;;;;;;13.43;100.00;100185.09;5050350;28;20057;-89
2022/08/21 00:09:17;;;;;;;6.50;0.98;;;;;;;13.22;100.00;100176.63;5044681;28;20048;-89
2022/08/21 00:11:44;;;;;;;3.25;0.90;;;;;;;13.24;100.00;100187.94;5051013;28;20479;-89
2022/08/21 00:14:12;;;;;;;3.70;1.10;;;;;;;13.38;100.00;100194.19;5050472;28;20049;-88
2022/08/21 00:16:39;;;;;;;3.63;1.10;;;;;;;13.33;100.00;100196.25;5050680;28;20072;-88
2022/08/21 00:19:08;;;;;;;3.47;1.00;;;;;;;12.95;100.00;100191.38;5050846;28;20140;-89
2022/08/21 00:21:36;;;;;;;6.28;1.35;;;;;;;12.87;100.00;100192.66;5050339;28;20599;-88
2022/08/21 00:24:03;;;;;;;5.30;1.08;;;;;;;12.99;100.00;100188.47;5050153;28;20494;-89
2022/08/21 00:26:29;;;;;;;6.05;1.10;;;;;;;13.03;100.00;100179.50;5050638;28;20041;-89
2022/08/21 00:28:56;;;;;;;7.70;1.25;;;;;;;12.94;100.00;100181.78;5049353;28;20045;-89
2022/08/21 00:31:24;;;;;;;2.95;0.95;;;;;;;13.00;100.00;100176.19;5051883;28;20449;-89
2022/08/21 00:33:51;;;;;;;5.05;1.30;;;;;;;12.95;100.00;100184.31;5035137;28;20055;-89
2022/08/21 00:36:26;;;;;;;3.30;0.90;;;;;;;12.95;100.00;100176.44;5050261;28;20106;-89
2022/08/21 00:38:52;;;;;;;4.90;1.20;;;;;;;12.68;100.00;100169.16;5053189;28;20059;-89
2022/08/21 00:41:19;;;;;;;3.75;1.15;;;;;;;12.73;100.00;100174.19;5054502;28;20058;-89
2022/08/21 00:44:06;;;;;;;7.32;1.30;;;;;;;12.64;100.00;100185.16;5043933;28;20076;-89
2022/08/21 00:46:34;;;;;;;7.80;1.27;;;;;;;12.30;100.00;100179.97;5047317;28;20427;-89
2022/08/21 00:49:00;;;;;;;7.05;1.52;;;;;;;12.39;100.00;100178.63;5048943;28;20411;-88
2022/08/21 00:51:39;;;;;;;6.43;1.45;;;;;;;12.27;100.00;100166.16;5054446;28;20049;-89
2022/08/21 00:54:08;;;;;;;7.40;1.50;;;;;;;12.48;100.00;100161.53;5054724;28;20061;-89
2022/08/21 00:56:46;;;;;;;6.03;1.42;;;;;;;12.38;100.00;100176.94;5054715;28;20475;-89
2022/08/21 00:59:16;;;;;;;7.88;1.48;;;;;;;12.52;100.00;100157.81;5040128;28;20519;-89
2022/08/21 01:01:42;;;;;;;4.03;1.15;;;;;;;12.44;100.00;100171.34;5043719;28;20045;-89
2022/08/21 01:04:09;;;;;;;3.30;1.15;;;;;;;12.50;100.00;100180.66;5053430;28;20055;-89
2022/08/21 01:06:36;;;;;;;4.47;1.00;;;;;;;12.47;100.00;100179.06;5041594;28;20049;-89
2022/08/21 01:09:03;;;;;;;4.22;1.17;;;;;;;12.51;100.00;100159.59;5041796;28;20053;-89
2022/08/21 01:11:30;;;;;;;5.55;1.10;;;;;;;12.55;100.00;100162.88;5048511;28;20046;-89
2022/08/21 01:13:57;;;;;;;4.38;1.20;;;;;;;12.51;100.00;100148.25;5045752;28;20048;-88
2022/08/21 01:16:24;;;;;;;4.70;1.00;;;;;;;12.71;100.00;100155.00;5053966;28;20041;-89
2022/08/21 01:18:51;;;;;;;4.90;1.10;;;;;;;12.81;100.00;100164.06;5053633;28;20059;-89
2022/08/21 01:21:24;;;;;;;6.90;1.25;;;;;;;12.78;100.00;100176.53;5053624;28;20479;-89
2022/08/21 01:23:56;;;;;;;5.35;1.23;;;;;;;12.54;100.00;100169.94;5054342;28;20049;-89
2022/08/21 01:26:26;;;;;;;5.40;1.08;;;;;;;12.53;100.00;100172.63;5053662;28;20049;-88
2022/08/21 01:29:09;;;;;;;2.55;1.00;;;;;;;12.53;100.00;100191.00;5049838;28;20052;-89
2022/08/21 01:31:37;;;;;;;4.68;1.00;;;;;;;12.58;100.00;100169.78;5050902;28;20056;-89
2022/08/21 01:34:03;;;;;;;5.28;0.95;;;;;;;12.41;100.00;100174.16;5052563;28;20053;-89
2022/08/21 01:36:31;;;;;;;5.13;1.30;;;;;;;12.44;100.00;100175.75;5039583;28;20050;-89
2022/08/21 01:38:58;;;;;;;4.30;1.67;;;;;;;12.23;100.00;100159.41;5041261;28;20072;-89
2022/08/21 01:41:24;;;;;;;6.63;1.30;;;;;;;12.42;100.00;100180.25;5048310;28;20055;-89
2022/08/21 01:43:51;;;;;;;5.28;1.27;;;;;;;12.15;100.00;100165.91;5053002;28;20049;-89
2022/08/21 01:46:18;;;;;;;6.00;1.42;;;;;;;12.01;100.00;100165.78;5054862;28;20132;-89
2022/08/21 01:48:46;;;;;;;4.10;1.20;;;;;;;12.24;100.00;100164.56;5051840;28;20048;-89
2022/08/21 01:51:14;;;;;;;4.55;1.13;;;;;;;12.39;100.00;100186.50;5054991;28;20056;-89
2022/08/21 01:53:41;;;;;;;8.90;1.83;;;;;;;12.07;100.00;100170.69;5054187;28;20696;-89
2022/08/21 01:56:10;;;;;;;4.80;1.20;;;;;;;12.10;100.00;100191.53;5049663;28;20064;-88
2022/08/21 01:58:39;;;;;;;8.27;1.65;;;;;;;11.75;100.00;100182.84;5035441;28;20057;-89
2022/08/21 02:01:07;;;;;;;6.90;1.33;;;;;;;11.72;100.00;100194.34;5051262;28;20513;-88
2022/08/21 02:03:34;;;;;;;5.03;1.40;;;;;;;11.75;100.00;100183.69;5053579;28;20049;-88
2022/08/21 02:06:04;;;;;;;5.30;1.20;;;;;;;11.89;100.00;100185.59;5050799;28;20055;-89
2022/08/21 02:08:31;;;;;;;6.40;1.40;;;;;;;11.77;100.00;100188.84;5040225;28;20108;-89
2022/08/21 02:10:58;;;;;;;6.18;1.30;;;;;;;11.65;100.00;100195.59;5046917;28;20056;-88
2022/08/21 02:13:25;;;;;;;6.43;1.33;;;;;;;11.69;100.00;100176.13;5040965;28;20063;-89
2022/08/21 02:15:52;;;;;;;6.47;1.45;;;;;;;11.84;100.00;100184.16;5053169;28;20475;-89
2022/08/21 02:18:18;;;;;;;4.65;1.20;;;;;;;11.88;100.00;100173.44;5046301;28;20049;-88
2022/08/21 02:20:48;;;;;;;5.13;1.60;;;;;;;12.09;100.00;100189.00;5046293;28;20068;-89
2022/08/21 02:23:22;;;;;;;7.57;1.30;;;;;;;12.28;100.00;100184.47;5048660;28;20083;-89
2022/08/21 02:26:06;;;;;;;4.43;1.23;;;;;;;12.11;100.00;100174.00;5039346;28;20068;-89
2022/08/21 02:28:34;;;;;;;6.53;1.40;;;;;;;12.10;100.00;100186.28;5049899;28;20048;-89
2022/08/21 02:31:02;;;;;;;8.60;1.80;;;;;;;12.18;100.00;100183.25;5044496;28;20057;-89
2022/08/21 02:33:29;;;;;;;3.85;0.98;;;;;;;12.02;100.00;100170.09;5047048;28;20128;-89
2022/08/21 02:35:56;;;;;;;3.95;1.25;;;;;;;12.09;100.00;100189.84;5052965;28;20155;-88
2022/08/21 02:38:26;;;;;;;5.28;1.20;;;;;;;12.23;100.00;100181.22;5050924;28;20044;-88
2022/08/21 02:40:54;;;;;;;3.80;1.58;;;;;;;12.21;100.00;100183.09;5052901;28;20517;-89
2022/08/21 02:43:23;;;;;;;8.77;1.33;;;;;;;12.23;100.00;100183.84;5045840;28;20480;-89
2022/08/21 02:45:51;;;;;;;4.55;1.20;;;;;;;12.29;100.00;100173.03;5043202;28;20048;-89
2022/08/21 02:48:21;;;;;;;5.55;1.10;;;;;;;12.37;100.00;100183.13;5048740;28;20056;-89
2022/08/21 02:50:57;;;;;;;5.95;1.27;;;;;;;12.22;100.00;100168.22;5042540;28;20585;-87
2022/08/21 02:53:24;;;;;;;6.10;1.73;;;;;;;12.30;100.00;100166.84;5053002;28;20045;-88
2022/08/21 02:55:52;;;;;;;5.40;1.30;;;;;;;12.13;100.00;100170.38;5053920;28;20055;-89
2022/08/21 02:58:27;;;;;;;5.57;1.30;;;;;;;12.23;100.00;100169.91;5053658;28;20049;-89
2022/08/21 03:00:54;;;;;;;8.18;1.30;;;;;;;12.08;100.00;100159.28;5053875;28;20049;-88
2022/08/21 03:03:21;;;;;;;5.00;1.17;;;;;;;12.16;100.00;100174.63;5052815;28;20045;-88
2022/08/21 03:05:48;;;;;;;3.45;1.15;;;;;;;12.30;100.00;100172.09;5040039;28;20459;-88
2022/08/21 03:08:17;;;;;;;5.68;1.27;;;;;;;12.26;100.00;100175.81;5052487;28;20132;-88
2022/08/21 03:10:48;;;;;;;7.32;1.38;;;;;;;12.24;100.00;100161.09;5053314;28;20049;-88
2022/08/21 03:13:15;;;;;;;4.22;1.20;;;;;;;12.46;100.00;100180.00;5054654;28;20090;-88
2022/08/21 03:15:43;;;;;;;3.25;1.10;;;;;;;12.40;100.00;100180.34;5035094;28;20045;-89
2022/08/21 03:18:11;;;;;;;5.63;1.35;;;;;;;12.40;100.00;100176.88;5038435;28;20053;-88
2022/08/21 03:20:40;;;;;;;3.88;1.25;;;;;;;11.87;100.00;100121.03;5053426;28;20075;-88
2022/08/21 03:23:07;;;;;;;6.30;1.30;;;;;;;12.06;100.00;100173.44;5053452;28;20040;-89
2022/08/21 03:25:42;;;;;;;3.65;1.10;;;;;;;11.85;100.00;100147.34;5053432;28;20498;-89
2022/08/21 03:28:13;;;;;;;4.68;1.27;;;;;;;11.86;100.00;100146.41;5047746;28;20053;-89
2022/08/21 03:30:43;;;;;;;7.28;1.63;;;;;;;11.54;100.00;100132.34;5048663;28;20095;-88
2022/08/21 03:33:10;;;;;;;4.55;1.25;;;;;;;11.70;100.00;100124.53;5046243;28;20128;-89
2022/08/21 03:35:46;;;;;;;9.68;1.52;;;;;;;11.61;100.00;100154.69;5033094;28;20053;-88
2022/08/21 03:38:13;;;;;;;6.78;1.48;;;;;;;11.67;100.00;100119.44;5038891;28;20053;-88
2022/08/21 03:40:42;;;;;;;5.68;1.48;;;;;;;11.95;100.00;100166.97;5052979;28;20048;-88
2022/08/21 03:43:09;;;;;;;6.05;1.60;;;;;;;12.02;100.00;100169.25;5052849;28;20045;-88
2022/08/21 03:45:37;;;;;;;5.20;1.17;;;;;;;11.78;100.00;100143.34;5054308;28;20132;-88
2022/08/21 03:48:06;;;;;;;3.38;1.15;;;;;;;11.86;100.00;100150.81;5052774;28;20061;-88
2022/08/21 03:50:36;;;;;;;5.03;1.35;;;;;;;11.98;100.00;100159.84;5052943;28;20079;-88
2022/08/21 03:53:09;;;;;;;5.32;1.52;;;;;;;11.92;100.00;100163.66;5053031;28;20515;-89
2022/08/21 03:55:48;;;;;;;3.45;1.10;;;;;;;11.77;100.00;100136.41;5053346;28;20580;-88
2022/08/21 03:58:16;;;;;;;4.57;1.00;;;;;;;12.03;100.00;100171.78;5036392;28;20049;-88
2022/08/21 04:00:46;;;;;;;4.63;1.20;;;;;;;11.91;100.00;100139.16;5032625;28;20638;-89
2022/08/21 04:03:12;;;;;;;3.38;1.10;;;;;;;11.61;100.00;100111.91;5033875;28;20396;-89
2022/08/21 04:05:41;;;;;;;6.03;1.45;;;;;;;12.05;100.00;100177.81;5032842;28;20072;-88
2022/08/21 04:08:08;;;;;;;8.88;1.77;;;;;;;11.82;100.00;100141.41;5037701;28;20057;-89
2022/08/21 04:10:38;;;;;;;2.53;1.02;;;;;;;12.06;100.00;100171.66;5044739;28;20498;-89
2022/08/21 04:13:06;;;;;;;6.78;1.20;;;;;;;11.80;100.00;100151.97;5048258;28;20045;-90
2022/08/21 04:15:33;;;;;;;3.58;1.00;;;;;;;11.96;100.00;100170.44;5053915;28;20602;-89
2022/08/21 04:18:00;;;;;;;4.40;1.20;;;;;;;11.73;100.00;100154.06;5052168;28;20368;-89
2022/08/21 04:20:27;;;;;;;5.38;1.15;;;;;;;11.75;100.00;100154.84;5052105;28;20045;-89
2022/08/21 04:22:54;;;;;;;6.90;1.42;;;;;;;12.07;100.00;100172.47;5052530;28;20080;-89
2022/08/21 04:25:23;;;;;;;5.15;1.02;;;;;;;12.24;100.00;100169.81;5048286;28;20076;-89
2022/08/21 04:27:50;;;;;;;7.97;1.33;;;;;;;12.32;100.00;100182.50;5034288;28;20140;-89
2022/08/21 04:30:18;;;;;;;5.65;1.35;;;;;;;12.30;100.00;100190.47;5032577;28;20528;-89
2022/08/21 04:32:47;;;;;;;5.38;1.52;;;;;;;12.39;100.00;100204.03;5032637;28;20050;-89
2022/08/21 04:35:23;;;;;;;2.72;0.90;;;;;;;12.40;100.00;100182.97;5033720;28;20502;-89
2022/08/21 04:37:50;;;;;;;4.10;1.15;;;;;;;12.44;100.00;100184.47;5048497;28;20052;-89
2022/08/21 04:40:19;;;;;;;4.53;1.00;;;;;;;12.52;100.00;100216.44;5052672;28;20052;-89
2022/08/21 04:42:54;;;;;;;5.85;1.60;;;;;;;12.14;100.00;100168.59;5052507;28;20044;-89
2022/08/21 04:45:26;;;;;;;3.08;1.10;;;;;;;12.18;100.00;100171.91;5041733;28;20063;-89
2022/08/21 04:47:56;;;;;;;4.30;1.37;;;;;;;12.39;100.00;100207.50;5049171;28;20072;-88
2022/08/21 04:50:29;;;;;;;4.85;1.23;;;;;;;12.09;100.00;100163.63;5032379;28;20060;-88
2022/08/21 04:52:57;;;;;;;4.68;1.30;;;;;;;12.38;100.00;100182.19;5032494;28;20053;-88
2022/08/21 04:55:27;;;;;;;6.32;1.70;;;;;;;12.54;100.00;100206.69;5040291;28;20107;-89
2022/08/21 04:57:55;;;;;;;2.78;0.85;;;;;;;12.50;100.00;100209.56;5051811;28;20052;-89
2022/08/21 05:00:24;;;;;;;5.90;1.48;;;;;;;12.57;100.00;100210.06;5052118;28;20053;-88
2022/08/21 05:02:56;;;;;;;3.58;1.25;;;;;;;12.73;100.00;100216.22;5051775;28;20041;-89
2022/08/21 05:05:23;;;;;;;4.90;1.00;;;;;;;12.87;100.00;100224.19;5051886;28;20053;-89
2022/08/21 05:07:52;;;;;;;3.80;1.00;;;;;;;12.63;100.00;100209.75;5050366;28;20463;-88
2022/08/21 05:10:20;;;;;;;4.70;1.45;;;;;;;12.71;100.00;100224.16;5031646;28;20046;-88
2022/08/21 05:12:47;;;;;;;3.67;1.25;;;;;;;12.70;100.00;100213.75;5031987;28;20052;-88
2022/08/21 05:15:14;;;;;;;7.47;1.30;;;;;;;12.67;100.00;100214.75;5032028;28;20049;-89
2022/08/21 05:17:41;;;;;;;3.25;1.20;;;;;;;12.73;100.00;100211.78;5036056;28;20167;-89
2022/08/21 05:20:10;;;;;;;4.45;1.10;;;;;;;12.62;100.00;100201.00;5050906;28;20407;-89
2022/08/21 05:22:37;;;;;;;4.78;1.10;;;;;;;12.85;100.00;100241.78;5054992;28;20049;-89
2022/08/21 05:25:05;;;;;;;3.95;1.10;;;;;;;12.99;100.00;100248.06;5055017;28;20045;-89
2022/08/21 05:27:38;;;;;;;3.30;0.95;;;;;;;12.89;100.00;100256.47;5054199;28;20084;-89
2022/08/21 05:30:09;;;;;;;4.45;1.00;;;;;;;12.89;100.00;100261.72;5036665;28;20072;-88
2022/08/21 05:32:36;;;;;;;3.38;1.00;;;;;;;12.83;100.00;100242.81;5035234;28;20045;-88
2022/08/21 05:35:07;;;;;;;2.70;1.00;;;;;;;12.68;100.00;100226.13;5035360;28;20068;-88
2022/08/21 05:37:34;;;;;;;9.23;1.40;;;;;;;12.63;100.00;100226.34;5036508;28;20050;-88
2022/08/21 05:40:03;;;;;;;4.05;1.00;;;;;;;12.79;100.00;100254.44;5035159;28;20391;-88
2022/08/21 05:42:53;;;;;;;1.85;0.90;;;;;;;12.86;100.00;100267.13;5035484;28;20053;-88
2022/08/21 05:45:27;;;;;;;4.05;1.13;;;;;;;12.75;100.00;100279.16;5053766;28;20402;-88
2022/08/21 05:48:16;;;;;;;4.55;1.33;;;;;;;12.66;100.00;100265.59;5050654;28;20073;-88
2022/08/21 05:50:45;;;;;;;3.33;1.00;;;;;;;12.66;100.00;100241.97;5034967;28;20052;-89
2022/08/21 05:53:14;;;;;;;12.07;2.10;;;;;;;12.89;100.00;100277.47;5037041;28;20479;-88
2022/08/21 05:55:41;;;;;;;3.53;1.33;;;;;;;12.90;100.00;100271.28;5038340;28;20042;-88
2022/08/21 05:58:18;;;;;;;4.47;1.10;;;;;;;12.88;100.00;100249.50;5038249;28;20049;-88
2022/08/21 06:00:47;;;;;;;4.43;1.23;;;;;;;12.80;100.00;100254.34;5039954;28;20049;-88
2022/08/21 06:03:22;;;;;;;4.60;1.20;;;;;;;12.90;100.00;100280.94;5054458;28;20045;-88
2022/08/21 06:05:49;;;;;;;3.35;1.10;;;;;;;12.99;100.00;100266.47;5058557;28;20141;-89
2022/08/21 06:08:17;;;;;;;4.05;1.55;;;;;;;12.72;100.00;100233.72;5053533;28;20369;-88
2022/08/21 06:10:46;;;;;;;5.22;0.95;;;;;;;13.02;100.00;100275.03;5038094;28;20473;-88
2022/08/21 06:13:14;;;;;;;7.10;1.25;;;;;;;13.10;100.00;100300.88;5037986;28;20046;-88
2022/08/21 06:15:41;;;;;;;4.57;1.20;;;;;;;13.01;100.00;100275.94;5038432;28;20483;-88
2022/08/21 06:18:08;;;;;;;5.50;1.30;;;;;;;13.13;100.00;100274.44;5038250;28;20060;-87
2022/08/21 06:20:35;;;;;;;4.88;1.20;;;;;;;13.15;100.00;100298.84;5038464;28;20466;-88
2022/08/21 06:23:05;;;;;;;11.60;1.25;;;;;;;13.06;100.00;100286.22;5038088;28;20394;-87
2022/08/21 06:25:32;;;;;;;8.63;1.58;;;;;;;13.20;100.00;100259.16;5037982;28;20057;-88
2022/08/21 06:28:05;;;;;;;7.22;1.40;;;;;;;13.32;100.00;100299.75;5041011;28;20049;-88
2022/08/21 06:30:34;;;;;;;4.00;0.98;;;;;;;13.47;100.00;100288.34;5059320;28;20056;-88
2022/08/21 06:33:02;;;;;;;6.22;1.27;;;;;;;13.42;100.00;100279.84;5058293;28;20111;-89
2022/08/21 06:35:28;;;;;;;3.97;1.50;;;;;;;13.44;100.00;100264.88;5059034;28;20136;-88
2022/08/21 06:37:57;;;;;;;8.18;1.45;;;;;;;14.21;100.00;100237.50;5054963;28;20056;-87
2022/08/21 06:40:25;;;;;;;5.53;1.20;;;;;;;14.22;100.00;100293.66;5038354;28;20099;-87
2022/08/21 06:42:52;;;;;;;4.30;1.10;;;;;;;14.98;100.00;100245.94;5053248;28;20041;-87
2022/08/21 06:45:19;;;;;;;7.53;1.17;;;;;;;15.57;100.00;100261.44;5057982;28;20475;-87
2022/08/21 06:47:46;;;;;;;2.85;0.90;;;;;;;16.17;100.00;100279.56;5056322;28;20049;-86
2022/08/21 06:50:13;;;;;;;4.07;1.10;;;;;;;16.26;100.00;100255.16;5055851;28;20145;-85
2022/08/21 06:52:40;;;;;;;5.78;1.27;;;;;;;16.71;100.00;100239.66;5056478;28;20069;-86
2022/08/21 06:55:09;;;;;;;4.43;1.02;;;;;;;16.87;100.00;100268.50;5057589;28;20588;-86
2022/08/21 06:57:36;;;;;;;7.82;1.67;;;;;;;16.96;100.00;100289.00;5056212;28;20045;-86
2022/08/21 07:00:05;;;;;;;5.60;0.88;;;;;;;17.42;100.00;100313.94;5057333;28;20533;-86
2022/08/21 07:02:33;;;;;;;4.18;1.13;;;;;;;17.54;100.00;100293.69;5056405;28;20075;-86
2022/08/21 07:05:01;;;;;;;3.72;0.85;;;;;;;18.40;100.00;100309.25;5053347;28;20461;-87
2022/08/21 07:07:44;;;;;;;5.72;1.20;;;;;;;17.63;100.00;100272.66;5037217;28;20095;-87
2022/08/21 07:10:11;;;;;;;6.55;1.27;;;;;;;18.29;100.00;100265.97;5036292;28;20460;-85
2022/08/21 07:12:48;;;;;;;3.92;0.90;;;;;;;18.02;100.00;100305.09;5037416;28;20057;-85
2022/08/21 07:15:16;;;;;;;5.10;1.23;;;;;;;18.44;100.00;100299.25;5037558;28;20049;-85
2022/08/21 07:17:43;;;;;;;4.00;0.88;;;;;;;19.00;100.00;100268.41;5037156;28;20049;-85
2022/08/21 07:20:10;;;;;;;4.35;0.90;;;;;;;19.11;94.65;100250.66;5040659;28;20140;-85
2022/08/21 07:22:40;;;;;;;4.35;0.95;;;;;;;19.68;90.19;100266.38;5036073;28;20050;-85
2022/08/21 07:25:08;;;;;;;4.20;1.00;;;;;;;19.90;84.34;100297.31;5035677;28;20050;-85
2022/08/21 07:27:36;;;;;;;3.10;0.85;;;;;;;19.75;82.46;100267.59;5035448;28;20053;-85
2022/08/21 07:30:04;;;;;;;2.83;0.82;;;;;;;19.94;82.51;100250.09;5055424;28;20055;-85
2022/08/21 07:32:31;;;;;;;3.50;0.80;;;;;;;19.59;77.50;100240.59;5049178;28;20402;-85
2022/08/21 07:34:58;;;;;;;3.83;0.90;;;;;;;20.17;78.87;100304.81;5035248;28;20128;-85
2022/08/21 07:37:25;;;;;;;4.53;1.10;;;;;;;19.77;74.50;100283.41;5034344;28;20632;-85
2022/08/21 07:39:52;;;;;;;3.58;0.85;;;;;;;20.39;80.68;100279.03;5033940;28;20140;-85
2022/08/21 07:42:19;;;;;;;4.28;0.90;;;;;;;19.86;79.56;100294.09;5034158;28;20076;-85
2022/08/21 07:44:46;;;;;;;6.43;0.93;;;;;;;20.32;71.25;100275.22;5055287;28;20132;-85
2022/08/21 07:47:16;;;;;;;3.28;1.00;;;;;;;20.75;71.58;100280.34;5055501;28;20049;-86
2022/08/21 07:50:03;;;;;;;4.75;0.90;;;;;;;20.21;69.80;100308.03;5049712;28;20076;-86
2022/08/21 07:52:30;;;;;;;3.45;0.93;;;;;;;20.07;68.58;100277.31;5046299;28;20084;-86
2022/08/21 07:54:58;;;;;;;3.83;0.80;;;;;;;20.56;67.47;100302.34;5054876;28;20056;-85
2022/08/21 07:57:31;;;;;;;4.95;0.90;;;;;;;20.35;67.14;100307.72;5055057;28;20045;-86
2022/08/21 07:59:58;;;;;;;3.67;0.90;;;;;;;19.90;65.94;100271.63;5035320;28;20384;-86
2022/08/21 08:02:27;;;;;;;5.70;1.05;;;;;;;20.07;67.23;100315.34;5033992;28;20132;-85
2022/08/21 08:04:58;;;;;;;5.78;0.93;;;;;;;20.33;67.12;100309.66;5038111;28;20467;-86
2022/08/21 08:07:25;;;;;;;5.03;1.00;;;;;;;20.15;65.21;100292.59;5050419;28;20406;-85
2022/08/21 08:09:52;;;;;;;2.92;0.70;;;;;;;20.36;64.32;100303.22;5038123;28;20053;-85
2022/08/21 08:12:20;;;;;;;5.40;0.85;;;;;;;20.27;64.46;100303.06;5047039;28;20132;-86
2022/08/21 08:14:47;;;;;;;5.38;0.93;;;;;;;20.15;62.75;100324.50;5052632;28;20152;-85
2022/08/21 08:17:14;;;;;;;6.80;1.05;;;;;;;19.22;65.17;100344.50;5054335;28;20075;-86
2022/08/21 08:19:40;;;;;;;3.47;0.90;;;;;;;19.74;64.97;100332.28;5053466;28;20056;-86
2022/08/21 08:22:20;;;;;;;4.53;1.13;;;;;;;19.88;65.15;100329.38;5050503;28;20052;-85
2022/08/21 08:24:48;;;;;;;3.78;1.02;;;;;;;20.36;65.76;100373.22;5048383;28;20041;-85
2022/08/21 08:27:16;;;;;;;3.25;1.02;;;;;;;20.19;64.39;100302.84;5044131;28;20080;-86
2022/08/21 08:29:43;;;;;;;3.70;0.90;;;;;;;20.71;64.25;100376.50;5036266;28;20050;-86
2022/08/21 08:32:11;;;;;;;4.75;1.00;;;;;;;20.67;64.66;100358.16;5054121;28;20548;-87
2022/08/21 08:34:38;;;;;;;4.10;0.85;;;;;;;20.83;63.14;100333.72;5042407;28;20056;-87
2022/08/21 08:37:09;;;;;;;4.18;0.90;;;;;;;21.08;62.68;100375.97;5053511;28;20049;-87
2022/08/21 08:39:36;;;;;;;2.42;0.70;;;;;;;20.78;61.55;100338.59;5044611;28;20047;-87
2022/08/21 08:42:07;;;;;;;3.13;0.70;;;;;;;21.42;60.69;100385.34;5040295;28;20049;-87
2022/08/21 08:45:13;;;;;;;2.30;0.73;;;;;;;21.43;56.59;100332.91;5042078;28;20049;-87
2022/08/21 08:47:46;;;;;;;2.90;0.80;;;;;;;21.04;57.84;100266.28;5032880;28;20057;-87
2022/08/21 08:50:27;;;;;;;;;;;;;;;21.78;56.46;100372.38;5052228;28;20056;-87
2022/08/21 08:53:03;;;;;;;4.22;0.70;;;;;;;21.22;56.32;100346.31;5057211;28;19927;-87
2022/08/21 08:55:40;;;;;;;5.82;1.40;;;;;;;21.73;55.29;100326.66;5047843;28;20051;-86
2022/08/21 08:58:26;;;;;;;4.15;0.70;;;;;;;21.52;56.06;100379.22;5056234;28;20565;-87
2022/08/21 09:00:54;;;;;;;5.05;1.10;;;;;;;21.69;55.65;100319.06;5047472;28;20063;-87
2022/08/21 09:03:26;;;;;;;6.90;1.23;;;;;;;21.71;53.69;100333.09;5039156;28;20073;-87
2022/08/21 09:06:06;;;;;;;5.35;1.20;;;;;;;22.24;54.93;100379.81;5052515;28;20536;-86
2022/08/21 09:09:02;;;;;;;6.20;1.00;;;;;;;22.41;53.04;100373.78;5051481;28;20049;-87
2022/08/21 09:11:51;;;;;;;5.20;1.13;;;;;;;22.02;53.50;100351.63;5041014;28;20087;-88
2022/08/21 09:14:44;;;;;;;3.55;0.93;;;;;;;22.40;53.00;100382.78;5053101;28;20075;-87
2022/08/21 09:17:26;;;;;;;4.00;0.90;;;;;;;22.34;52.52;100384.16;5044913;28;20053;-86
2022/08/21 09:20:17;;;;;;;3.83;1.00;;;;;;;22.61;52.27;100384.41;5041338;28;20049;-87
2022/08/21 09:22:52;;;;;;;3.63;0.80;;;;;;;21.80;50.30;100330.44;5047071;28;20136;-87
2022/08/21 09:25:30;;;;;;;3.15;0.90;;;;;;;22.28;51.22;100394.59;5040568;28;20072;-87
2022/08/21 09:27:57;;;;;;;4.28;0.88;;;;;;;22.23;50.47;100356.81;5054873;28;20045;-86
2022/08/21 09:30:29;;;;;;;3.78;0.90;;;;;;;22.36;49.88;100397.38;5036727;28;20080;-87
2022/08/21 09:32:56;;;;;;;4.05;1.15;;;;;;;21.50;49.03;100375.84;5048186;28;20049;-87
2022/08/21 09:35:24;;;;;;;5.93;0.90;;;;;;;20.94;49.93;100322.13;5047398;28;20045;-87
2022/08/21 09:38:02;;;;;;;3.60;0.63;;;;;;;20.93;50.55;100376.34;5054341;28;20049;-87
2022/08/21 09:40:35;;;;;;;4.30;0.98;;;;;;;21.47;50.47;100406.25;5044998;28;20090;-86
2022/08/21 09:43:04;;;;;;;;;;;;;;;21.95;50.41;100410.81;5051723;28;20449;-87
2022/08/21 09:45:32;;;;;;;4.93;0.90;;;;;;;21.66;51.24;100370.84;5052662;28;19931;-87
2022/08/21 09:48:10;;;;;;;2.42;0.95;;;;;;;22.63;49.52;100419.78;5044429;28;20056;-87
2022/08/21 09:51:07;;;;;;;4.38;1.05;;;;;;;22.09;48.61;100398.06;5039377;28;20519;-87
2022/08/21 09:53:54;;;;;;;5.13;0.90;;;;;;;22.16;49.08;100385.84;5023017;28;20549;-87
2022/08/21 09:59:31;;;;;;;3.97;0.80;;;;;;;22.19;48.88;100414.91;5052333;28;19931;-88
2022/08/21 10:02:34;;;;;;;3.78;0.73;;;;;;;22.55;46.54;100373.31;5042499;28;20081;-87
2022/08/21 10:05:23;;;;;;;3.78;1.15;;;;;;;22.49;47.67;100362.41;5045038;28;20056;-86
2022/08/21 10:07:50;;;;;;;3.28;1.10;;;;;;;21.42;48.05;100397.78;5041809;28;20045;-87
2022/08/21 10:10:26;;;;;;;2.13;0.70;;;;;;;21.73;47.61;100395.94;5050438;28;20076;-86
2022/08/21 10:13:13;;;;;;;2.63;0.70;;;;;;;21.85;48.04;100394.00;5052877;28;20116;-87
2022/08/21 10:15:52;;;;;;;0.73;0.50;;;;;;;21.31;48.49;100432.53;5051651;28;20140;-87
2022/08/21 10:18:37;;;;;;;5.60;0.80;;;;;;;20.08;50.20;100324.19;5043604;28;20497;-86
2022/08/21 10:21:26;;;;;;;3.00;0.80;;;;;;;20.78;48.74;100364.38;5063915;28;20063;-87
2022/08/21 10:24:17;;;;;;;3.45;0.93;;;;;;;20.38;50.44;100412.94;5045600;28;20049;-86
2022/08/21 10:27:09;;;;;;;3.83;0.80;;;;;;;21.07;50.19;100451.47;5051043;28;20088;-90
2022/08/21 10:29:59;;;;;;;1.35;0.70;;;;;;;20.99;49.71;100430.84;5042397;28;20057;-90
2022/08/21 10:32:55;;;;;;;3.88;0.93;;;;;;;20.60;51.19;100449.22;5045278;28;20059;-87
2022/08/21 10:35:22;;;;;;;5.22;1.00;;;;;;;20.57;52.15;100460.09;5050900;28;20049;-87
2022/08/21 10:38:08;;;;;;;3.17;0.80;;;;;;;20.06;51.94;100448.34;5043029;28;20045;-88
2022/08/21 10:40:58;;;;;;;1.83;0.70;;;;;;;19.80;52.96;100434.56;5055975;28;20057;-88
2022/08/21 10:43:38;;;;;;;3.30;0.82;;;;;;;19.94;54.41;100466.16;5057867;28;20471;-87
2022/08/21 10:46:50;;;;;;;4.07;1.00;;;;;;;19.61;54.87;100408.63;5056433;28;20050;-87
2022/08/21 10:49:16;;;;;;;2.38;0.90;;;;;;;20.79;53.81;100470.66;5057665;28;20135;-87
2022/08/21 10:52:18;;;;;;;3.00;1.00;;;;;;;21.22;54.08;100463.47;5056698;28;20534;-87
2022/08/21 10:54:52;;;;;;;3.45;0.90;;;;;;;21.54;51.70;100463.34;5033565;28;20047;-87
2022/08/21 10:57:42;;;;;;;5.25;0.93;;;;;;;21.80;50.80;100452.19;5056286;28;20132;-87
2022/08/21 11:00:13;;;;;;;5.07;0.90;;;;;;;21.60;50.40;100414.00;4998664;28;20046;-88
2022/08/21 11:02:45;;;;;;;3.10;0.90;;;;;;;22.10;50.33;100469.91;5036559;28;20064;-87
2022/08/21 11:05:19;;;;;;;3.03;0.80;;;;;;;21.43;49.60;100440.28;5036382;28;20056;-87
2022/08/21 11:07:59;;;;;;;2.45;0.70;;;;;;;21.04;48.64;100476.53;5035907;28;20049;-87
2022/08/21 11:10:47;;;;;;;7.10;1.10;;;;;;;20.99;48.91;100497.38;5037386;28;20057;-87
2022/08/21 11:13:34;;;;;;;2.03;0.70;;;;;;;20.54;50.00;100486.94;5036365;28;20045;-87
2022/08/21 11:16:17;;;;;;;4.85;0.90;;;;;;;20.00;51.43;100452.38;5036128;28;20063;-87
2022/08/21 11:18:50;;;;;;;3.08;0.80;;;;;;;20.39;50.56;100470.47;5040716;28;20049;-88
2022/08/21 11:21:34;;;;;;;2.53;0.88;;;;;;;20.32;50.84;100466.63;5057169;28;20116;-88
2022/08/21 11:24:15;;;;;;;2.00;0.80;;;;;;;20.69;50.41;100492.84;5056510;28;20063;-88
2022/08/21 11:27:14;;;;;;;1.58;0.70;;;;;;;20.26;51.54;100511.38;5055937;28;20052;-87
2022/08/21 11:29:44;;;;;;;5.03;0.98;;;;;;;19.99;52.12;100477.25;5019461;28;20411;-88
2022/08/21 11:32:26;;;;;;;3.67;1.05;;;;;;;20.30;53.52;100514.63;5038729;28;20057;-88
2022/08/21 11:35:11;;;;;;;4.15;1.10;;;;;;;20.72;53.17;100516.53;5055783;28;20051;-88
2022/08/21 11:37:56;;;;;;;4.57;0.98;;;;;;;20.58;52.58;100528.31;5057039;28;20481;-88
2022/08/21 11:40:35;;;;;;;5.03;0.95;;;;;;;20.41;53.06;100525.19;5055724;28;20044;-88
2022/08/21 11:43:29;;;;;;;2.53;0.80;;;;;;;20.43;52.25;100525.06;5056168;28;20050;-87
2022/08/21 11:46:22;;;;;;;4.22;0.90;;;;;;;20.09;53.14;100496.78;5055657;28;20091;-88